Charlotte, North Carolina
Current Conditions -  °F | °C
As of 12:52 AM on Tuesday 27 Jan 2015 (Local Time) from KCLT Reporting Station
Scattered Clouds Scattered Clouds  
Wind Chill: 29°   Ceiling: Unl
Heat Index: 36°   Visibility: 10mi
Dew Point: 21°   Wind: 9mph
Humidity: 55%   Direction: 300°WNW
Pressure: 29.76"   Gusts: NA
Location:  35.22°N, 80.84°W
Report Text: KCLT 270552Z 30008KT 10SM SCT170 02/M06 A2976 RMK AO2 SLP080 T00221061 10072 20017 58001
Loading
Personal Weather Stations






























Interactive Weather Map New forecast layout! Learn more

10-Day Weather Forecast

Advertisements
Track Severe Weather on mobile